sensor_id;sensor_type;location;lat;lon;timestamp;P1;durP1;ratioP1;P2;durP2;ratioP2
79790;SDS011;69278;52.220;5.172;2024-02-21T00:00:32;12.02;;;3.13;;
79790;SDS011;69278;52.220;5.172;2024-02-21T00:02:58;15.43;;;3.38;;
79790;SDS011;69278;52.220;5.172;2024-02-21T00:05:28;14.00;;;3.08;;
79790;SDS011;69278;52.220;5.172;2024-02-21T00:07:54;9.13;;;3.05;;
79790;SDS011;69278;52.220;5.172;2024-02-21T00:10:21;11.60;;;3.20;;
79790;SDS011;69278;52.220;5.172;2024-02-21T00:12:48;11.85;;;2.92;;
79790;SDS011;69278;52.220;5.172;2024-02-21T00:15:14;11.75;;;2.78;;
79790;SDS011;69278;52.220;5.172;2024-02-21T00:17:41;15.98;;;2.97;;
79790;SDS011;69278;52.220;5.172;2024-02-21T00:20:07;9.43;;;3.33;;
79790;SDS011;69278;52.220;5.172;2024-02-21T00:22:34;14.20;;;2.95;;
79790;SDS011;69278;52.220;5.172;2024-02-21T00:25:01;17.73;;;3.33;;
79790;SDS011;69278;52.220;5.172;2024-02-21T00:27:28;12.80;;;2.88;;
79790;SDS011;69278;52.220;5.172;2024-02-21T00:29:54;14.68;;;3.53;;
79790;SDS011;69278;52.220;5.172;2024-02-21T00:32:21;14.48;;;3.65;;
79790;SDS011;69278;52.220;5.172;2024-02-21T00:34:47;10.63;;;2.97;;
79790;SDS011;69278;52.220;5.172;2024-02-21T00:37:14;10.70;;;2.95;;
79790;SDS011;69278;52.220;5.172;2024-02-21T00:39:40;10.50;;;2.78;;
79790;SDS011;69278;52.220;5.172;2024-02-21T00:42:09;13.05;;;2.65;;
79790;SDS011;69278;52.220;5.172;2024-02-21T00:44:36;14.02;;;2.97;;
79790;SDS011;69278;52.220;5.172;2024-02-21T00:47:03;10.00;;;2.83;;
79790;SDS011;69278;52.220;5.172;2024-02-21T00:49:29;13.40;;;2.90;;
79790;SDS011;69278;52.220;5.172;2024-02-21T00:51:56;14.05;;;3.30;;
79790;SDS011;69278;52.220;5.172;2024-02-21T00:54:22;11.10;;;2.90;;
79790;SDS011;69278;52.220;5.172;2024-02-21T00:56:49;10.63;;;2.50;;
79790;SDS011;69278;52.220;5.172;2024-02-21T00:59:16;14.35;;;3.22;;
79790;SDS011;69278;52.220;5.172;2024-02-21T01:01:43;13.70;;;3.22;;
79790;SDS011;69278;52.220;5.172;2024-02-21T01:04:09;9.20;;;2.65;;
79790;SDS011;69278;52.220;5.172;2024-02-21T01:06:36;14.98;;;3.13;;
79790;SDS011;69278;52.220;5.172;2024-02-21T01:09:03;8.65;;;2.67;;
79790;SDS011;69278;52.220;5.172;2024-02-21T01:11:30;12.73;;;3.00;;
79790;SDS011;69278;52.220;5.172;2024-02-21T01:13:56;10.20;;;2.78;;
79790;SDS011;69278;52.220;5.172;2024-02-21T01:16:24;9.20;;;2.72;;
79790;SDS011;69278;52.220;5.172;2024-02-21T01:18:50;15.82;;;3.45;;
79790;SDS011;69278;52.220;5.172;2024-02-21T01:21:17;10.70;;;2.60;;
79790;SDS011;69278;52.220;5.172;2024-02-21T01:23:44;11.20;;;2.67;;
79790;SDS011;69278;52.220;5.172;2024-02-21T01:26:10;13.82;;;3.22;;
79790;SDS011;69278;52.220;5.172;2024-02-21T01:28:39;11.38;;;2.80;;
79790;SDS011;69278;52.220;5.172;2024-02-21T01:31:07;13.82;;;2.97;;
79790;SDS011;69278;52.220;5.172;2024-02-21T01:33:33;8.90;;;2.40;;
79790;SDS011;69278;52.220;5.172;2024-02-21T01:36:05;10.13;;;3.05;;
79790;SDS011;69278;52.220;5.172;2024-02-21T01:38:34;11.13;;;2.58;;
79790;SDS011;69278;52.220;5.172;2024-02-21T01:41:01;13.77;;;2.95;;
79790;SDS011;69278;52.220;5.172;2024-02-21T01:43:27;11.30;;;3.10;;
79790;SDS011;69278;52.220;5.172;2024-02-21T01:45:55;14.93;;;3.05;;
79790;SDS011;69278;52.220;5.172;2024-02-21T01:48:22;15.60;;;2.75;;
79790;SDS011;69278;52.220;5.172;2024-02-21T01:50:50;12.82;;;2.65;;
79790;SDS011;69278;52.220;5.172;2024-02-21T01:53:22;10.48;;;2.55;;
79790;SDS011;69278;52.220;5.172;2024-02-21T01:55:51;16.70;;;2.90;;
79790;SDS011;69278;52.220;5.172;2024-02-21T01:58:19;10.93;;;2.90;;
79790;SDS011;69278;52.220;5.172;2024-02-21T02:00:46;11.52;;;3.13;;
79790;SDS011;69278;52.220;5.172;2024-02-21T02:03:14;11.77;;;2.90;;
79790;SDS011;69278;52.220;5.172;2024-02-21T02:05:46;11.35;;;2.30;;
79790;SDS011;69278;52.220;5.172;2024-02-21T02:08:18;15.20;;;2.50;;
79790;SDS011;69278;52.220;5.172;2024-02-21T02:10:45;13.77;;;2.80;;
79790;SDS011;69278;52.220;5.172;2024-02-21T02:13:12;11.20;;;2.40;;
79790;SDS011;69278;52.220;5.172;2024-02-21T02:15:40;13.35;;;2.70;;
79790;SDS011;69278;52.220;5.172;2024-02-21T02:18:11;11.93;;;2.70;;
79790;SDS011;69278;52.220;5.172;2024-02-21T02:20:39;9.70;;;2.72;;
79790;SDS011;69278;52.220;5.172;2024-02-21T02:23:17;7.65;;;2.47;;
79790;SDS011;69278;52.220;5.172;2024-02-21T02:25:49;4.70;;;1.85;;
79790;SDS011;69278;52.220;5.172;2024-02-21T02:28:20;10.30;;;2.42;;
79790;SDS011;69278;52.220;5.172;2024-02-21T02:30:47;14.40;;;2.42;;
79790;SDS011;69278;52.220;5.172;2024-02-21T02:33:14;14.55;;;2.55;;
79790;SDS011;69278;52.220;5.172;2024-02-21T02:35:41;15.35;;;2.90;;
79790;SDS011;69278;52.220;5.172;2024-02-21T02:38:07;11.10;;;2.72;;
79790;SDS011;69278;52.220;5.172;2024-02-21T02:40:34;8.73;;;2.60;;
79790;SDS011;69278;52.220;5.172;2024-02-21T02:43:01;14.48;;;3.13;;
79790;SDS011;69278;52.220;5.172;2024-02-21T02:45:28;18.92;;;2.97;;
79790;SDS011;69278;52.220;5.172;2024-02-21T02:47:55;15.07;;;2.80;;
79790;SDS011;69278;52.220;5.172;2024-02-21T02:50:24;11.27;;;2.55;;
79790;SDS011;69278;52.220;5.172;2024-02-21T02:52:51;13.75;;;2.85;;
79790;SDS011;69278;52.220;5.172;2024-02-21T02:55:18;8.63;;;2.35;;
79790;SDS011;69278;52.220;5.172;2024-02-21T02:57:45;13.95;;;2.58;;
79790;SDS011;69278;52.220;5.172;2024-02-21T03:00:11;11.25;;;2.88;;
79790;SDS011;69278;52.220;5.172;2024-02-21T03:02:39;9.88;;;2.55;;
79790;SDS011;69278;52.220;5.172;2024-02-21T03:05:14;17.25;;;2.65;;
79790;SDS011;69278;52.220;5.172;2024-02-21T03:07:45;13.38;;;3.05;;
79790;SDS011;69278;52.220;5.172;2024-02-21T03:10:12;10.75;;;2.50;;
79790;SDS011;69278;52.220;5.172;2024-02-21T03:12:40;13.32;;;2.88;;
79790;SDS011;69278;52.220;5.172;2024-02-21T03:15:07;8.55;;;2.72;;
79790;SDS011;69278;52.220;5.172;2024-02-21T03:17:33;7.97;;;2.50;;
79790;SDS011;69278;52.220;5.172;2024-02-21T03:20:03;10.85;;;2.63;;
79790;SDS011;69278;52.220;5.172;2024-02-21T03:22:38;13.55;;;2.88;;
79790;SDS011;69278;52.220;5.172;2024-02-21T03:25:05;13.35;;;2.83;;
79790;SDS011;69278;52.220;5.172;2024-02-21T03:27:33;14.20;;;3.00;;
79790;SDS011;69278;52.220;5.172;2024-02-21T03:29:59;12.00;;;3.10;;
79790;SDS011;69278;52.220;5.172;2024-02-21T03:32:26;14.95;;;3.20;;
79790;SDS011;69278;52.220;5.172;2024-02-21T03:34:54;10.15;;;3.50;;
79790;SDS011;69278;52.220;5.172;2024-02-21T03:37:21;15.10;;;3.08;;
79790;SDS011;69278;52.220;5.172;2024-02-21T03:39:48;10.38;;;3.10;;
79790;SDS011;69278;52.220;5.172;2024-02-21T03:42:14;15.02;;;3.63;;
79790;SDS011;69278;52.220;5.172;2024-02-21T03:44:40;15.23;;;3.50;;
79790;SDS011;69278;52.220;5.172;2024-02-21T03:47:07;10.85;;;3.17;;
79790;SDS011;69278;52.220;5.172;2024-02-21T03:49:37;14.48;;;3.72;;
79790;SDS011;69278;52.220;5.172;2024-02-21T03:52:04;14.52;;;2.85;;
79790;SDS011;69278;52.220;5.172;2024-02-21T03:54:30;15.23;;;3.60;;
79790;SDS011;69278;52.220;5.172;2024-02-21T03:56:57;10.55;;;3.08;;
79790;SDS011;69278;52.220;5.172;2024-02-21T03:59:23;13.10;;;3.28;;
79790;SDS011;69278;52.220;5.172;2024-02-21T04:01:53;12.85;;;3.53;;
79790;SDS011;69278;52.220;5.172;2024-02-21T04:04:20;11.65;;;3.30;;
79790;SDS011;69278;52.220;5.172;2024-02-21T04:06:47;12.50;;;3.40;;
79790;SDS011;69278;52.220;5.172;2024-02-21T04:09:15;13.27;;;3.45;;
79790;SDS011;69278;52.220;5.172;2024-02-21T04:11:41;9.68;;;3.20;;
79790;SDS011;69278;52.220;5.172;2024-02-21T04:14:08;11.57;;;3.45;;
79790;SDS011;69278;52.220;5.172;2024-02-21T04:16:35;12.57;;;3.40;;
79790;SDS011;69278;52.220;5.172;2024-02-21T04:19:01;12.43;;;3.72;;
79790;SDS011;69278;52.220;5.172;2024-02-21T04:21:28;11.63;;;3.95;;
79790;SDS011;69278;52.220;5.172;2024-02-21T04:23:55;14.77;;;4.55;;
79790;SDS011;69278;52.220;5.172;2024-02-21T04:26:22;13.95;;;4.40;;
79790;SDS011;69278;52.220;5.172;2024-02-21T04:28:48;11.02;;;4.30;;
79790;SDS011;69278;52.220;5.172;2024-02-21T04:31:15;14.52;;;4.10;;
79790;SDS011;69278;52.220;5.172;2024-02-21T04:33:41;11.73;;;4.25;;
79790;SDS011;69278;52.220;5.172;2024-02-21T04:36:08;14.88;;;4.65;;
79790;SDS011;69278;52.220;5.172;2024-02-21T04:38:35;10.85;;;3.92;;
79790;SDS011;69278;52.220;5.172;2024-02-21T04:41:02;9.55;;;4.03;;
79790;SDS011;69278;52.220;5.172;2024-02-21T04:43:28;11.20;;;3.70;;
79790;SDS011;69278;52.220;5.172;2024-02-21T04:45:55;11.13;;;3.80;;
79790;SDS011;69278;52.220;5.172;2024-02-21T04:48:22;9.43;;;4.03;;
79790;SDS011;69278;52.220;5.172;2024-02-21T04:50:48;11.35;;;3.90;;
79790;SDS011;69278;52.220;5.172;2024-02-21T04:53:15;11.65;;;3.92;;
79790;SDS011;69278;52.220;5.172;2024-02-21T04:55:42;12.07;;;4.22;;
79790;SDS011;69278;52.220;5.172;2024-02-21T04:58:09;10.85;;;4.05;;
79790;SDS011;69278;52.220;5.172;2024-02-21T05:00:35;10.75;;;4.38;;
79790;SDS011;69278;52.220;5.172;2024-02-21T05:03:02;9.73;;;3.67;;
79790;SDS011;69278;52.220;5.172;2024-02-21T05:05:29;12.52;;;4.45;;
79790;SDS011;69278;52.220;5.172;2024-02-21T05:07:55;9.95;;;4.18;;
79790;SDS011;69278;52.220;5.172;2024-02-21T05:10:22;12.68;;;4.40;;
79790;SDS011;69278;52.220;5.172;2024-02-21T05:12:49;13.40;;;4.45;;
79790;SDS011;69278;52.220;5.172;2024-02-21T05:15:16;11.43;;;4.18;;
79790;SDS011;69278;52.220;5.172;2024-02-21T05:17:42;14.23;;;4.40;;
79790;SDS011;69278;52.220;5.172;2024-02-21T05:20:10;14.63;;;4.43;;
79790;SDS011;69278;52.220;5.172;2024-02-21T05:22:37;12.88;;;3.78;;
79790;SDS011;69278;52.220;5.172;2024-02-21T05:25:03;11.18;;;4.70;;
79790;SDS011;69278;52.220;5.172;2024-02-21T05:27:30;9.07;;;4.05;;
79790;SDS011;69278;52.220;5.172;2024-02-21T05:30:14;11.32;;;4.65;;
79790;SDS011;69278;52.220;5.172;2024-02-21T05:32:41;11.15;;;4.70;;
79790;SDS011;69278;52.220;5.172;2024-02-21T05:35:07;9.80;;;4.10;;
79790;SDS011;69278;52.220;5.172;2024-02-21T05:37:34;12.40;;;4.70;;
79790;SDS011;69278;52.220;5.172;2024-02-21T05:40:01;11.55;;;5.05;;
79790;SDS011;69278;52.220;5.172;2024-02-21T05:42:27;10.13;;;4.47;;
79790;SDS011;69278;52.220;5.172;2024-02-21T05:44:54;15.20;;;4.90;;
79790;SDS011;69278;52.220;5.172;2024-02-21T05:47:20;10.90;;;4.80;;
79790;SDS011;69278;52.220;5.172;2024-02-21T05:49:47;14.00;;;5.45;;
79790;SDS011;69278;52.220;5.172;2024-02-21T05:52:14;14.65;;;5.45;;
79790;SDS011;69278;52.220;5.172;2024-02-21T05:54:41;12.18;;;5.30;;
79790;SDS011;69278;52.220;5.172;2024-02-21T05:57:08;14.07;;;5.57;;
79790;SDS011;69278;52.220;5.172;2024-02-21T05:59:35;13.48;;;5.07;;
79790;SDS011;69278;52.220;5.172;2024-02-21T06:02:02;16.35;;;4.88;;
79790;SDS011;69278;52.220;5.172;2024-02-21T06:04:30;10.88;;;5.32;;
79790;SDS011;69278;52.220;5.172;2024-02-21T06:06:57;13.52;;;5.28;;
79790;SDS011;69278;52.220;5.172;2024-02-21T06:09:24;14.02;;;5.60;;
79790;SDS011;69278;52.220;5.172;2024-02-21T06:11:50;13.00;;;4.93;;
79790;SDS011;69278;52.220;5.172;2024-02-21T06:14:17;12.50;;;5.65;;
79790;SDS011;69278;52.220;5.172;2024-02-21T06:16:44;10.80;;;5.25;;
79790;SDS011;69278;52.220;5.172;2024-02-21T06:19:10;10.13;;;4.90;;
79790;SDS011;69278;52.220;5.172;2024-02-21T06:21:37;10.90;;;4.40;;
79790;SDS011;69278;52.220;5.172;2024-02-21T06:24:04;11.40;;;5.78;;
79790;SDS011;69278;52.220;5.172;2024-02-21T06:26:30;14.45;;;5.93;;
79790;SDS011;69278;52.220;5.172;2024-02-21T06:28:57;10.90;;;5.30;;
79790;SDS011;69278;52.220;5.172;2024-02-21T06:31:26;12.27;;;4.75;;
79790;SDS011;69278;52.220;5.172;2024-02-21T06:33:54;12.95;;;6.15;;
79790;SDS011;69278;52.220;5.172;2024-02-21T06:36:21;15.07;;;6.07;;
79790;SDS011;69278;52.220;5.172;2024-02-21T06:38:48;13.45;;;6.18;;
79790;SDS011;69278;52.220;5.172;2024-02-21T06:41:18;17.42;;;6.90;;
79790;SDS011;69278;52.220;5.172;2024-02-21T06:43:45;14.73;;;6.00;;
79790;SDS011;69278;52.220;5.172;2024-02-21T06:46:31;15.10;;;6.03;;
79790;SDS011;69278;52.220;5.172;2024-02-21T06:49:00;15.20;;;6.25;;
79790;SDS011;69278;52.220;5.172;2024-02-21T06:51:27;16.02;;;6.15;;
79790;SDS011;69278;52.220;5.172;2024-02-21T06:53:54;16.42;;;6.55;;
79790;SDS011;69278;52.220;5.172;2024-02-21T06:56:23;14.73;;;6.30;;
79790;SDS011;69278;52.220;5.172;2024-02-21T06:58:55;16.70;;;7.07;;
79790;SDS011;69278;52.220;5.172;2024-02-21T07:01:22;6.63;;;3.17;;
79790;SDS011;69278;52.220;5.172;2024-02-21T07:03:50;8.90;;;4.13;;
79790;SDS011;69278;52.220;5.172;2024-02-21T07:06:16;11.82;;;4.30;;
79790;SDS011;69278;52.220;5.172;2024-02-21T07:08:43;10.15;;;4.68;;
79790;SDS011;69278;52.220;5.172;2024-02-21T07:11:10;11.90;;;4.47;;
79790;SDS011;69278;52.220;5.172;2024-02-21T07:13:37;9.13;;;4.75;;
79790;SDS011;69278;52.220;5.172;2024-02-21T07:16:04;9.63;;;4.50;;
79790;SDS011;69278;52.220;5.172;2024-02-21T07:18:31;11.35;;;5.03;;
79790;SDS011;69278;52.220;5.172;2024-02-21T07:20:57;9.07;;;3.92;;
79790;SDS011;69278;52.220;5.172;2024-02-21T07:23:24;11.07;;;4.53;;
79790;SDS011;69278;52.220;5.172;2024-02-21T07:25:51;10.63;;;4.72;;
79790;SDS011;69278;52.220;5.172;2024-02-21T07:28:18;11.05;;;4.80;;
79790;SDS011;69278;52.220;5.172;2024-02-21T07:30:44;12.32;;;4.97;;
79790;SDS011;69278;52.220;5.172;2024-02-21T07:33:11;13.35;;;5.45;;
79790;SDS011;69278;52.220;5.172;2024-02-21T07:35:37;8.45;;;4.20;;
79790;SDS011;69278;52.220;5.172;2024-02-21T07:38:04;12.70;;;5.28;;
79790;SDS011;69278;52.220;5.172;2024-02-21T07:40:31;10.77;;;4.55;;
79790;SDS011;69278;52.220;5.172;2024-02-21T07:42:58;16.90;;;5.28;;
79790;SDS011;69278;52.220;5.172;2024-02-21T07:45:24;10.32;;;3.67;;
79790;SDS011;69278;52.220;5.172;2024-02-21T07:47:51;13.88;;;5.60;;
79790;SDS011;69278;52.220;5.172;2024-02-21T07:50:18;12.23;;;5.28;;
79790;SDS011;69278;52.220;5.172;2024-02-21T07:52:44;11.68;;;5.13;;
79790;SDS011;69278;52.220;5.172;2024-02-21T07:55:11;16.50;;;6.00;;
79790;SDS011;69278;52.220;5.172;2024-02-21T07:57:38;13.90;;;5.45;;
79790;SDS011;69278;52.220;5.172;2024-02-21T08:00:05;15.95;;;6.03;;
79790;SDS011;69278;52.220;5.172;2024-02-21T08:02:32;12.48;;;5.55;;
79790;SDS011;69278;52.220;5.172;2024-02-21T08:04:58;12.68;;;5.50;;
79790;SDS011;69278;52.220;5.172;2024-02-21T08:07:25;11.43;;;5.10;;
79790;SDS011;69278;52.220;5.172;2024-02-21T08:09:55;18.13;;;6.63;;
79790;SDS011;69278;52.220;5.172;2024-02-21T08:12:22;15.05;;;6.80;;
79790;SDS011;69278;52.220;5.172;2024-02-21T08:14:49;15.02;;;6.53;;
79790;SDS011;69278;52.220;5.172;2024-02-21T08:17:16;14.85;;;6.55;;
79790;SDS011;69278;52.220;5.172;2024-02-21T08:19:42;14.75;;;6.88;;
79790;SDS011;69278;52.220;5.172;2024-02-21T08:22:09;17.33;;;6.85;;
79790;SDS011;69278;52.220;5.172;2024-02-21T08:24:35;13.90;;;6.95;;
79790;SDS011;69278;52.220;5.172;2024-02-21T08:27:02;16.52;;;7.30;;
79790;SDS011;69278;52.220;5.172;2024-02-21T08:29:29;19.10;;;7.30;;
79790;SDS011;69278;52.220;5.172;2024-02-21T08:31:55;14.95;;;6.45;;
79790;SDS011;69278;52.220;5.172;2024-02-21T08:34:22;13.77;;;6.47;;
79790;SDS011;69278;52.220;5.172;2024-02-21T08:36:49;18.75;;;7.03;;
79790;SDS011;69278;52.220;5.172;2024-02-21T08:39:16;17.00;;;7.45;;
79790;SDS011;69278;52.220;5.172;2024-02-21T08:41:45;17.02;;;7.03;;
79790;SDS011;69278;52.220;5.172;2024-02-21T08:44:23;16.75;;;7.07;;
79790;SDS011;69278;52.220;5.172;2024-02-21T08:46:53;17.67;;;7.53;;
79790;SDS011;69278;52.220;5.172;2024-02-21T08:49:21;13.80;;;6.72;;
79790;SDS011;69278;52.220;5.172;2024-02-21T08:51:47;19.13;;;8.20;;
79790;SDS011;69278;52.220;5.172;2024-02-21T08:54:14;19.75;;;7.80;;
79790;SDS011;69278;52.220;5.172;2024-02-21T08:56:41;17.70;;;8.43;;
79790;SDS011;69278;52.220;5.172;2024-02-21T08:59:07;18.52;;;7.72;;
79790;SDS011;69278;52.220;5.172;2024-02-21T09:01:34;19.55;;;7.85;;
79790;SDS011;69278;52.220;5.172;2024-02-21T09:04:01;19.92;;;8.90;;
79790;SDS011;69278;52.220;5.172;2024-02-21T09:06:29;18.52;;;7.93;;
79790;SDS011;69278;52.220;5.172;2024-02-21T09:08:56;17.40;;;6.90;;
79790;SDS011;69278;52.220;5.172;2024-02-21T09:11:24;17.10;;;7.82;;
79790;SDS011;69278;52.220;5.172;2024-02-21T09:13:51;13.68;;;4.47;;
79790;SDS011;69278;52.220;5.172;2024-02-21T09:16:18;9.70;;;4.38;;
79790;SDS011;69278;52.220;5.172;2024-02-21T09:18:44;11.25;;;4.60;;
79790;SDS011;69278;52.220;5.172;2024-02-21T09:21:11;13.40;;;5.80;;
79790;SDS011;69278;52.220;5.172;2024-02-21T09:23:37;15.57;;;5.00;;
79790;SDS011;69278;52.220;5.172;2024-02-21T09:26:04;15.20;;;6.68;;
79790;SDS011;69278;52.220;5.172;2024-02-21T09:28:30;11.68;;;5.32;;
79790;SDS011;69278;52.220;5.172;2024-02-21T09:30:57;11.63;;;4.95;;
79790;SDS011;69278;52.220;5.172;2024-02-21T09:33:24;9.30;;;4.57;;
79790;SDS011;69278;52.220;5.172;2024-02-21T09:35:58;11.23;;;5.43;;
79790;SDS011;69278;52.220;5.172;2024-02-21T09:38:25;12.75;;;5.68;;
79790;SDS011;69278;52.220;5.172;2024-02-21T09:40:54;11.75;;;5.05;;
79790;SDS011;69278;52.220;5.172;2024-02-21T09:43:26;12.43;;;5.22;;
79790;SDS011;69278;52.220;5.172;2024-02-21T09:45:54;13.80;;;5.03;;
79790;SDS011;69278;52.220;5.172;2024-02-21T09:48:30;13.55;;;5.40;;
79790;SDS011;69278;52.220;5.172;2024-02-21T09:51:07;12.02;;;5.25;;
79790;SDS011;69278;52.220;5.172;2024-02-21T09:53:37;10.88;;;4.82;;
79790;SDS011;69278;52.220;5.172;2024-02-21T09:56:07;12.73;;;5.30;;
79790;SDS011;69278;52.220;5.172;2024-02-21T09:58:37;10.80;;;5.10;;
79790;SDS011;69278;52.220;5.172;2024-02-21T10:01:04;10.20;;;4.43;;
79790;SDS011;69278;52.220;5.172;2024-02-21T10:03:50;12.38;;;4.72;;
79790;SDS011;69278;52.220;5.172;2024-02-21T10:06:17;10.32;;;4.88;;
79790;SDS011;69278;52.220;5.172;2024-02-21T10:08:44;9.27;;;4.47;;
79790;SDS011;69278;52.220;5.172;2024-02-21T10:11:24;9.97;;;4.50;;
79790;SDS011;69278;52.220;5.172;2024-02-21T10:14:02;9.35;;;4.80;;
79790;SDS011;69278;52.220;5.172;2024-02-21T10:16:30;10.88;;;4.65;;
79790;SDS011;69278;52.220;5.172;2024-02-21T10:18:57;11.63;;;4.03;;
79790;SDS011;69278;52.220;5.172;2024-02-21T10:21:23;12.90;;;4.35;;
79790;SDS011;69278;52.220;5.172;2024-02-21T10:23:50;8.30;;;4.00;;
79790;SDS011;69278;52.220;5.172;2024-02-21T10:26:18;7.82;;;4.03;;
79790;SDS011;69278;52.220;5.172;2024-02-21T10:28:46;10.23;;;4.30;;
79790;SDS011;69278;52.220;5.172;2024-02-21T10:31:21;8.70;;;4.45;;
79790;SDS011;69278;52.220;5.172;2024-02-21T10:33:56;11.05;;;3.85;;
79790;SDS011;69278;52.220;5.172;2024-02-21T10:36:24;9.80;;;3.50;;
79790;SDS011;69278;52.220;5.172;2024-02-21T10:38:51;8.43;;;4.25;;
79790;SDS011;69278;52.220;5.172;2024-02-21T10:41:19;8.57;;;3.70;;
79790;SDS011;69278;52.220;5.172;2024-02-21T10:43:49;10.80;;;3.42;;
79790;SDS011;69278;52.220;5.172;2024-02-21T10:46:20;7.72;;;3.42;;
79790;SDS011;69278;52.220;5.172;2024-02-21T10:48:48;9.30;;;3.80;;
79790;SDS011;69278;52.220;5.172;2024-02-21T10:51:29;6.93;;;3.33;;
79790;SDS011;69278;52.220;5.172;2024-02-21T10:54:18;6.20;;;3.50;;
79790;SDS011;69278;52.220;5.172;2024-02-21T10:57:05;6.40;;;3.42;;
79790;SDS011;69278;52.220;5.172;2024-02-21T10:59:33;5.82;;;3.10;;
79790;SDS011;69278;52.220;5.172;2024-02-21T11:02:01;9.27;;;3.23;;
79790;SDS011;69278;52.220;5.172;2024-02-21T11:04:28;6.70;;;3.28;;
79790;SDS011;69278;52.220;5.172;2024-02-21T11:06:58;5.40;;;2.78;;
79790;SDS011;69278;52.220;5.172;2024-02-21T11:09:30;7.78;;;3.58;;
79790;SDS011;69278;52.220;5.172;2024-02-21T11:12:02;6.85;;;2.97;;
79790;SDS011;69278;52.220;5.172;2024-02-21T11:14:30;7.93;;;3.20;;
79790;SDS011;69278;52.220;5.172;2024-02-21T11:17:18;4.70;;;2.92;;
79790;SDS011;69278;52.220;5.172;2024-02-21T11:19:46;6.82;;;2.92;;
79790;SDS011;69278;52.220;5.172;2024-02-21T11:22:17;6.38;;;3.13;;
79790;SDS011;69278;52.220;5.172;2024-02-21T11:24:45;6.10;;;2.90;;
79790;SDS011;69278;52.220;5.172;2024-02-21T11:27:12;6.77;;;2.70;;
79790;SDS011;69278;52.220;5.172;2024-02-21T11:29:44;4.88;;;2.72;;
79790;SDS011;69278;52.220;5.172;2024-02-21T11:32:13;6.78;;;3.60;;
79790;SDS011;69278;52.220;5.172;2024-02-21T11:34:41;9.23;;;4.20;;
79790;SDS011;69278;52.220;5.172;2024-02-21T11:37:32;8.65;;;4.35;;
79790;SDS011;69278;52.220;5.172;2024-02-21T11:40:05;9.37;;;4.00;;
79790;SDS011;69278;52.220;5.172;2024-02-21T11:42:38;7.55;;;4.07;;
79790;SDS011;69278;52.220;5.172;2024-02-21T11:45:04;9.52;;;4.88;;
79790;SDS011;69278;52.220;5.172;2024-02-21T11:47:32;8.93;;;4.30;;
79790;SDS011;69278;52.220;5.172;2024-02-21T11:49:59;9.05;;;3.97;;
79790;SDS011;69278;52.220;5.172;2024-02-21T11:52:26;8.80;;;4.80;;
79790;SDS011;69278;52.220;5.172;2024-02-21T11:54:54;10.50;;;5.20;;
79790;SDS011;69278;52.220;5.172;2024-02-21T11:57:23;9.18;;;5.10;;
79790;SDS011;69278;52.220;5.172;2024-02-21T11:59:53;10.75;;;5.20;;
79790;SDS011;69278;52.220;5.172;2024-02-21T12:02:26;9.40;;;4.60;;
79790;SDS011;69278;52.220;5.172;2024-02-21T12:04:53;9.67;;;4.77;;
79790;SDS011;69278;52.220;5.172;2024-02-21T12:07:21;11.18;;;5.15;;
79790;SDS011;69278;52.220;5.172;2024-02-21T12:09:50;11.80;;;5.70;;
79790;SDS011;69278;52.220;5.172;2024-02-21T12:12:19;9.73;;;5.40;;
79790;SDS011;69278;52.220;5.172;2024-02-21T12:14:53;10.23;;;5.35;;
79790;SDS011;69278;52.220;5.172;2024-02-21T12:17:22;10.93;;;5.23;;
79790;SDS011;69278;52.220;5.172;2024-02-21T12:19:50;11.52;;;5.50;;
79790;SDS011;69278;52.220;5.172;2024-02-21T12:22:20;12.45;;;5.80;;
79790;SDS011;69278;52.220;5.172;2024-02-21T12:24:46;10.55;;;5.70;;
79790;SDS011;69278;52.220;5.172;2024-02-21T12:27:14;12.07;;;5.47;;
79790;SDS011;69278;52.220;5.172;2024-02-21T12:29:41;9.83;;;5.43;;
79790;SDS011;69278;52.220;5.172;2024-02-21T12:32:07;11.57;;;5.20;;
79790;SDS011;69278;52.220;5.172;2024-02-21T12:34:34;9.43;;;4.47;;
79790;SDS011;69278;52.220;5.172;2024-02-21T12:37:18;8.30;;;4.70;;
79790;SDS011;69278;52.220;5.172;2024-02-21T12:39:46;10.05;;;5.20;;
79790;SDS011;69278;52.220;5.172;2024-02-21T12:42:13;11.80;;;5.47;;
79790;SDS011;69278;52.220;5.172;2024-02-21T12:44:40;10.45;;;5.20;;
79790;SDS011;69278;52.220;5.172;2024-02-21T12:47:06;10.40;;;4.97;;
79790;SDS011;69278;52.220;5.172;2024-02-21T12:49:34;8.63;;;4.88;;
79790;SDS011;69278;52.220;5.172;2024-02-21T12:52:01;8.82;;;5.05;;
79790;SDS011;69278;52.220;5.172;2024-02-21T12:54:29;6.70;;;3.60;;
79790;SDS011;69278;52.220;5.172;2024-02-21T12:56:57;10.25;;;4.68;;
79790;SDS011;69278;52.220;5.172;2024-02-21T12:59:24;9.77;;;4.90;;
79790;SDS011;69278;52.220;5.172;2024-02-21T13:01:52;9.15;;;5.22;;
79790;SDS011;69278;52.220;5.172;2024-02-21T13:04:19;9.65;;;4.50;;
79790;SDS011;69278;52.220;5.172;2024-02-21T13:06:46;11.90;;;5.03;;
79790;SDS011;69278;52.220;5.172;2024-02-21T13:09:12;10.88;;;5.20;;
79790;SDS011;69278;52.220;5.172;2024-02-21T13:11:40;10.05;;;5.05;;
79790;SDS011;69278;52.220;5.172;2024-02-21T13:14:07;9.73;;;5.32;;
79790;SDS011;69278;52.220;5.172;2024-02-21T13:16:34;9.63;;;5.15;;
79790;SDS011;69278;52.220;5.172;2024-02-21T13:19:06;13.03;;;4.93;;
79790;SDS011;69278;52.220;5.172;2024-02-21T13:21:35;10.65;;;5.30;;
79790;SDS011;69278;52.220;5.172;2024-02-21T13:24:02;9.35;;;4.85;;
79790;SDS011;69278;52.220;5.172;2024-02-21T13:26:28;7.95;;;4.35;;
79790;SDS011;69278;52.220;5.172;2024-02-21T13:28:55;8.80;;;4.40;;
79790;SDS011;69278;52.220;5.172;2024-02-21T13:31:22;10.13;;;4.60;;
79790;SDS011;69278;52.220;5.172;2024-02-21T13:33:48;11.23;;;5.50;;
79790;SDS011;69278;52.220;5.172;2024-02-21T13:36:15;8.55;;;4.40;;
79790;SDS011;69278;52.220;5.172;2024-02-21T13:38:42;9.18;;;4.13;;
79790;SDS011;69278;52.220;5.172;2024-02-21T13:41:08;10.57;;;4.70;;
79790;SDS011;69278;52.220;5.172;2024-02-21T13:43:35;9.17;;;3.80;;
79790;SDS011;69278;52.220;5.172;2024-02-21T13:46:02;7.63;;;4.07;;
79790;SDS011;69278;52.220;5.172;2024-02-21T13:48:36;9.65;;;4.32;;
79790;SDS011;69278;52.220;5.172;2024-02-21T13:51:03;9.65;;;4.05;;
79790;SDS011;69278;52.220;5.172;2024-02-21T13:53:30;9.35;;;4.63;;
79790;SDS011;69278;52.220;5.172;2024-02-21T13:55:56;9.67;;;4.03;;
79790;SDS011;69278;52.220;5.172;2024-02-21T13:58:23;8.98;;;4.30;;
79790;SDS011;69278;52.220;5.172;2024-02-21T14:00:51;9.55;;;4.40;;
79790;SDS011;69278;52.220;5.172;2024-02-21T14:03:18;9.10;;;4.22;;
79790;SDS011;69278;52.220;5.172;2024-02-21T14:05:46;10.20;;;4.47;;
79790;SDS011;69278;52.220;5.172;2024-02-21T14:08:14;8.60;;;4.77;;
79790;SDS011;69278;52.220;5.172;2024-02-21T14:10:41;9.32;;;4.53;;
79790;SDS011;69278;52.220;5.172;2024-02-21T14:13:08;11.23;;;4.90;;
79790;SDS011;69278;52.220;5.172;2024-02-21T14:15:35;8.75;;;4.00;;
79790;SDS011;69278;52.220;5.172;2024-02-21T14:18:03;10.00;;;5.22;;
79790;SDS011;69278;52.220;5.172;2024-02-21T14:20:32;10.37;;;4.77;;
79790;SDS011;69278;52.220;5.172;2024-02-21T14:22:59;8.90;;;4.35;;
79790;SDS011;69278;52.220;5.172;2024-02-21T14:25:25;11.18;;;4.93;;
79790;SDS011;69278;52.220;5.172;2024-02-21T14:27:52;7.55;;;3.33;;
79790;SDS011;69278;52.220;5.172;2024-02-21T14:30:18;11.05;;;4.63;;
79790;SDS011;69278;52.220;5.172;2024-02-21T14:32:45;11.07;;;4.57;;
79790;SDS011;69278;52.220;5.172;2024-02-21T14:35:12;10.05;;;4.53;;
79790;SDS011;69278;52.220;5.172;2024-02-21T14:37:39;8.18;;;4.07;;
79790;SDS011;69278;52.220;5.172;2024-02-21T14:40:05;8.23;;;3.55;;
79790;SDS011;69278;52.220;5.172;2024-02-21T14:42:32;10.10;;;4.30;;